createdAt,value
2016-06-16T00:00:30.037Z,994.65
2016-06-16T00:01:30.010Z,994.67
2016-06-16T00:02:29.997Z,994.65
2016-06-16T00:03:29.969Z,994.63
2016-06-16T00:04:29.955Z,994.62
2016-06-16T00:05:29.927Z,994.6
2016-06-16T00:06:29.915Z,994.6
2016-06-16T00:07:29.887Z,994.59
2016-06-16T00:08:29.859Z,994.58
2016-06-16T00:09:29.846Z,994.6
2016-06-16T00:10:29.818Z,994.54
2016-06-16T00:11:29.805Z,994.59
2016-06-16T00:12:29.777Z,994.6
2016-06-16T00:13:29.766Z,994.61
2016-06-16T00:14:29.736Z,994.61
2016-06-16T00:15:29.708Z,994.59
2016-06-16T00:16:29.696Z,994.6
2016-06-16T00:17:29.684Z,994.58
2016-06-16T00:18:29.655Z,994.58
2016-06-16T00:19:29.627Z,994.57
2016-06-16T00:20:29.599Z,994.54
2016-06-16T00:21:29.586Z,994.51
2016-06-16T00:22:29.558Z,994.55
2016-06-16T00:23:29.546Z,994.54
2016-06-16T00:24:29.517Z,994.53
2016-06-16T00:25:29.770Z,994.57
2016-06-16T00:26:29.476Z,994.58
2016-06-16T00:27:29.448Z,994.61
2016-06-16T00:28:29.436Z,994.59
2016-06-16T00:29:29.423Z,994.6
2016-06-16T00:30:29.396Z,994.63
2016-06-16T00:31:29.367Z,994.66
2016-06-16T00:32:29.355Z,994.67
2016-06-16T00:33:29.326Z,994.65
2016-06-16T00:34:29.298Z,994.65
2016-06-16T00:35:29.286Z,994.69
2016-06-16T00:36:29.257Z,994.66
2016-06-16T00:37:29.245Z,994.66
2016-06-16T00:38:29.217Z,994.68
2016-06-16T00:39:29.188Z,994.66
2016-06-16T00:40:29.176Z,994.69
2016-06-16T00:41:29.148Z,994.67
2016-06-16T00:42:29.135Z,994.69
2016-06-16T00:43:29.107Z,994.66
2016-06-16T00:44:29.095Z,994.67
2016-06-16T00:45:29.067Z,994.64
2016-06-16T00:46:29.053Z,994.64
2016-06-16T00:47:29.026Z,994.64
2016-06-16T00:48:28.998Z,994.62
2016-06-16T00:49:28.985Z,994.61
2016-06-16T00:50:28.957Z,994.6
2016-06-16T00:51:28.928Z,994.54
2016-06-16T00:52:28.916Z,994.54
2016-06-16T00:53:28.888Z,994.51
2016-06-16T00:54:28.875Z,994.57
2016-06-16T00:55:28.848Z,994.56
2016-06-16T00:56:28.834Z,994.58
2016-06-16T00:57:28.807Z,994.56
2016-06-16T00:58:28.779Z,994.57
2016-06-16T00:59:28.766Z,994.58
2016-06-16T01:00:28.737Z,994.6
2016-06-16T01:01:28.709Z,994.61
2016-06-16T01:02:28.697Z,994.59
2016-06-16T01:03:28.669Z,994.58
2016-06-16T01:04:28.656Z,994.6
2016-06-16T01:05:28.628Z,994.6
2016-06-16T01:06:28.599Z,994.58
2016-06-16T01:07:28.587Z,994.6
2016-06-16T01:08:28.575Z,994.59
2016-06-16T01:09:28.546Z,994.62
2016-06-16T01:10:28.597Z,994.63
2016-06-16T01:11:28.506Z,994.64
2016-06-16T01:12:28.525Z,994.64
2016-06-16T01:13:28.495Z,994.64
2016-06-16T01:14:28.421Z,994.64
2016-06-16T01:15:28.409Z,994.6
2016-06-16T01:16:28.380Z,994.61
2016-06-16T01:17:28.368Z,994.56
2016-06-16T01:18:28.340Z,994.56
2016-06-16T01:19:28.311Z,994.57
2016-06-16T01:20:28.300Z,994.54
2016-06-16T01:21:28.270Z,994.53
2016-06-16T01:22:28.258Z,994.53
2016-06-16T01:23:28.230Z,994.5
2016-06-16T01:24:28.201Z,994.46
2016-06-16T01:25:28.190Z,994.49
2016-06-16T01:26:28.161Z,994.47
2016-06-16T01:27:28.149Z,994.44
2016-06-16T01:28:28.120Z,994.45
2016-06-16T01:29:28.092Z,994.46
2016-06-16T01:30:28.080Z,994.44
2016-06-16T01:31:28.051Z,994.42
2016-06-16T01:32:28.023Z,994.44
2016-06-16T01:33:28.011Z,994.42
2016-06-16T01:34:27.982Z,994.41
2016-06-16T01:35:27.970Z,994.42
2016-06-16T01:36:27.941Z,994.44
2016-06-16T01:37:27.929Z,994.41
2016-06-16T01:38:27.902Z,994.41
2016-06-16T01:39:27.872Z,994.4
2016-06-16T01:40:27.860Z,994.45
2016-06-16T01:41:27.848Z,994.42
2016-06-16T01:42:27.804Z,994.43
2016-06-16T01:43:27.792Z,994.46
2016-06-16T01:44:27.763Z,994.47
2016-06-16T01:45:27.751Z,994.48
2016-06-16T01:46:27.722Z,994.47
2016-06-16T01:47:27.694Z,994.49
2016-06-16T01:48:27.682Z,994.47
2016-06-16T01:49:27.654Z,994.47
2016-06-16T01:50:27.625Z,994.52
2016-06-16T01:51:27.612Z,994.46
2016-06-16T01:52:27.585Z,994.5
2016-06-16T01:53:27.557Z,994.49
2016-06-16T01:54:27.543Z,994.49
2016-06-16T01:55:27.531Z,994.49
2016-06-16T01:56:27.503Z,994.46
2016-06-16T01:57:27.475Z,994.45
2016-06-16T01:58:27.463Z,994.51
2016-06-16T01:59:27.434Z,994.45
2016-06-16T02:00:27.406Z,994.44
2016-06-16T02:01:27.378Z,994.4
2016-06-16T02:02:27.366Z,994.41
2016-06-16T02:03:27.337Z,994.41
2016-06-16T02:04:27.325Z,994.45
2016-06-16T02:05:27.296Z,994.47
2016-06-16T02:06:27.284Z,994.51
2016-06-16T02:07:27.255Z,994.53
2016-06-16T02:08:27.228Z,994.51
2016-06-16T02:09:27.215Z,994.52
2016-06-16T02:10:27.187Z,994.52
2016-06-16T02:11:27.674Z,994.52
2016-06-16T02:12:27.146Z,994.53
2016-06-16T02:13:27.118Z,994.52
2016-06-16T02:14:27.090Z,994.51
2016-06-16T02:15:27.077Z,994.5
2016-06-16T02:16:27.050Z,994.49
2016-06-16T02:17:27.021Z,994.46
2016-06-16T02:18:27.008Z,994.5
2016-06-16T02:19:26.981Z,994.5
2016-06-16T02:20:26.968Z,994.47
2016-06-16T02:21:26.939Z,994.51
2016-06-16T02:22:26.912Z,994.48
2016-06-16T02:23:26.899Z,994.54
2016-06-16T02:24:26.871Z,994.49
2016-06-16T02:25:26.842Z,994.51
2016-06-16T02:26:26.830Z,994.52
2016-06-16T02:27:26.802Z,994.54
2016-06-16T02:28:26.790Z,994.55
2016-06-16T02:29:26.761Z,994.54
2016-06-16T02:30:26.732Z,994.56
2016-06-16T02:31:26.720Z,994.53
2016-06-16T02:32:26.693Z,994.55
2016-06-16T02:33:26.679Z,994.52
2016-06-16T02:34:26.652Z,994.53
2016-06-16T02:35:26.623Z,994.54
2016-06-16T02:36:26.595Z,994.54
2016-06-16T02:37:26.583Z,994.58
2016-06-16T02:38:26.554Z,994.56
2016-06-16T02:39:26.526Z,994.57
2016-06-16T02:40:26.513Z,994.56
2016-06-16T02:41:26.485Z,994.55
2016-06-16T02:42:26.473Z,994.53
2016-06-16T02:43:26.444Z,994.48
2016-06-16T02:44:26.417Z,994.49
2016-06-16T02:45:26.389Z,994.5
2016-06-16T02:46:26.375Z,994.5
2016-06-16T02:47:26.347Z,994.49
2016-06-16T02:48:26.320Z,994.52
2016-06-16T02:49:26.323Z,994.56
2016-06-16T02:50:26.278Z,994.56
2016-06-16T02:51:26.266Z,994.61
2016-06-16T02:52:26.238Z,994.58
2016-06-16T02:53:26.210Z,994.61
2016-06-16T02:54:26.197Z,994.66
2016-06-16T02:55:26.170Z,994.64
2016-06-16T02:56:26.141Z,994.62
2016-06-16T02:57:26.128Z,994.64
2016-06-16T02:58:26.101Z,994.64
2016-06-16T02:59:26.072Z,994.64
2016-06-16T03:00:26.060Z,994.67
2016-06-16T03:01:26.032Z,994.62
2016-06-16T03:02:26.019Z,994.64
2016-06-16T03:03:26.006Z,994.6
2016-06-16T03:04:25.962Z,994.61
2016-06-16T03:05:25.950Z,994.64
2016-06-16T03:06:25.922Z,994.64
2016-06-16T03:07:25.894Z,994.59
2016-06-16T03:08:25.881Z,994.61
2016-06-16T03:09:25.852Z,994.64
2016-06-16T03:10:25.824Z,994.67
2016-06-16T03:11:25.813Z,994.68
2016-06-16T03:12:25.800Z,994.71
2016-06-16T03:13:25.755Z,994.7
2016-06-16T03:14:25.758Z,994.72
2016-06-16T03:15:25.715Z,994.71
2016-06-16T03:16:25.687Z,994.72
2016-06-16T03:17:25.674Z,994.7
2016-06-16T03:18:25.662Z,994.72
2016-06-16T03:19:25.618Z,994.72
2016-06-16T03:20:25.605Z,994.75
2016-06-16T03:21:25.577Z,994.69
2016-06-16T03:22:25.549Z,994.72
2016-06-16T03:23:25.536Z,994.69
2016-06-16T03:24:25.509Z,994.74
2016-06-16T03:25:25.480Z,994.77
2016-06-16T03:26:25.467Z,994.75
2016-06-16T03:27:25.440Z,994.75
2016-06-16T03:28:25.411Z,994.71
2016-06-16T03:29:25.398Z,994.75
2016-06-16T03:30:25.371Z,994.7
2016-06-16T03:31:25.358Z,994.72
2016-06-16T03:32:25.330Z,994.68
2016-06-16T03:33:25.301Z,994.67
2016-06-16T03:34:25.273Z,994.72
2016-06-16T03:35:25.261Z,994.73
2016-06-16T03:36:25.233Z,994.73
2016-06-16T03:37:25.204Z,994.75
2016-06-16T03:38:25.191Z,994.78
2016-06-16T03:39:25.163Z,994.77
2016-06-16T03:40:25.151Z,994.8
2016-06-16T03:41:25.123Z,994.71
2016-06-16T03:42:25.094Z,994.73
2016-06-16T03:43:25.066Z,994.75
2016-06-16T03:44:25.054Z,994.77
2016-06-16T03:45:25.025Z,994.75
2016-06-16T03:46:24.998Z,994.73
2016-06-16T03:47:24.985Z,994.76
2016-06-16T03:48:24.957Z,994.75
2016-06-16T03:49:24.929Z,994.72
2016-06-16T03:50:24.917Z,994.66
2016-06-16T03:51:24.888Z,994.66
2016-06-16T03:52:24.875Z,994.68
2016-06-16T03:53:24.847Z,994.67
2016-06-16T03:54:24.820Z,994.67
2016-06-16T03:55:24.806Z,994.68
2016-06-16T03:56:24.779Z,994.68
2016-06-16T03:57:24.750Z,994.69
2016-06-16T03:58:24.738Z,994.7
2016-06-16T03:59:24.710Z,994.68
2016-06-16T04:00:24.681Z,994.65
2016-06-16T04:01:24.669Z,994.68
2016-06-16T04:02:24.640Z,994.65
2016-06-16T04:03:24.629Z,994.64
2016-06-16T04:04:24.600Z,994.64
2016-06-16T04:05:24.571Z,994.65
2016-06-16T04:06:24.543Z,994.64
2016-06-16T04:07:24.531Z,994.62
2016-06-16T04:08:24.502Z,994.64
2016-06-16T04:09:24.490Z,994.66
2016-06-16T04:10:24.462Z,994.61
2016-06-16T04:11:24.887Z,994.66
2016-06-16T04:12:24.421Z,994.65
2016-06-16T04:13:24.392Z,994.67
2016-06-16T04:14:24.365Z,994.65
2016-06-16T04:15:24.352Z,994.69
2016-06-16T04:16:24.343Z,994.7
2016-06-16T04:17:24.370Z,994.72
2016-06-16T04:18:24.381Z,994.71
2016-06-16T04:19:24.393Z,994.73
2016-06-16T04:20:24.420Z,994.77
2016-06-16T04:21:24.421Z,994.77
2016-06-16T04:22:24.407Z,994.75
2016-06-16T04:23:24.408Z,994.76
2016-06-16T04:24:24.395Z,994.76
2016-06-16T04:25:24.396Z,994.77
2016-06-16T04:26:25.019Z,994.81
2016-06-16T04:27:24.355Z,994.84
2016-06-16T04:28:24.347Z,994.86
2016-06-16T04:29:24.324Z,994.93
2016-06-16T04:30:24.301Z,994.93
2016-06-16T04:31:24.292Z,994.94
2016-06-16T04:32:24.281Z,994.92
2016-06-16T04:33:24.255Z,994.94
2016-06-16T04:34:24.229Z,994.97
2016-06-16T04:35:24.217Z,994.94
2016-06-16T04:36:24.191Z,994.95
2016-06-16T04:37:24.179Z,994.99
2016-06-16T04:38:24.152Z,994.99
2016-06-16T04:39:24.125Z,995.05
2016-06-16T04:40:24.098Z,995.08
2016-06-16T04:41:24.085Z,995.09
2016-06-16T04:42:24.073Z,995.13
2016-06-16T04:43:24.045Z,995.19
2016-06-16T04:44:24.018Z,995.2
2016-06-16T04:45:24.005Z,995.22
2016-06-16T04:46:23.977Z,995.21
2016-06-16T04:47:23.949Z,995.22
2016-06-16T04:48:23.937Z,995.24
2016-06-16T04:49:23.908Z,995.24
2016-06-16T04:50:23.896Z,995.29
2016-06-16T04:51:23.868Z,995.32
2016-06-16T04:52:23.840Z,995.34
2016-06-16T04:53:23.827Z,995.37
2016-06-16T04:54:23.815Z,995.44
2016-06-16T04:55:23.786Z,995.46
2016-06-16T04:56:23.758Z,995.48
2016-06-16T04:57:24.434Z,995.57
2016-06-16T04:58:23.717Z,995.6
2016-06-16T04:59:23.689Z,995.62
2016-06-16T05:00:23.676Z,995.59
2016-06-16T05:01:23.648Z,995.65
2016-06-16T05:02:23.635Z,995.64
2016-06-16T05:03:23.608Z,995.67
2016-06-16T05:04:23.596Z,995.65
2016-06-16T05:05:23.566Z,995.66
2016-06-16T05:06:23.539Z,995.64
2016-06-16T05:07:23.526Z,995.71
2016-06-16T05:08:23.498Z,995.7
2016-06-16T05:09:23.486Z,995.73
2016-06-16T05:10:23.457Z,995.75
2016-06-16T05:11:23.445Z,995.7
2016-06-16T05:12:23.417Z,995.71
2016-06-16T05:13:23.405Z,995.68
2016-06-16T05:14:23.377Z,995.7
2016-06-16T05:15:23.364Z,995.68
2016-06-16T05:16:23.335Z,995.66
2016-06-16T05:17:23.323Z,995.67
2016-06-16T05:18:23.295Z,995.68
2016-06-16T05:19:23.282Z,995.65
2016-06-16T05:20:23.285Z,995.62
2016-06-16T05:21:23.241Z,995.62
2016-06-16T05:22:23.229Z,995.65
2016-06-16T05:23:23.216Z,995.64
2016-06-16T05:24:23.203Z,995.66
2016-06-16T05:25:23.160Z,995.71
2016-06-16T05:26:23.148Z,995.68
2016-06-16T05:27:23.135Z,995.65
2016-06-16T05:28:23.107Z,995.67
2016-06-16T05:29:23.093Z,995.63
2016-06-16T05:30:23.081Z,995.62
2016-06-16T05:31:23.054Z,995.61
2016-06-16T05:32:23.041Z,995.62
2016-06-16T05:33:23.028Z,995.62
2016-06-16T05:34:23.000Z,995.66
2016-06-16T05:35:22.987Z,995.66
2016-06-16T05:36:22.975Z,995.69
2016-06-16T05:37:22.947Z,995.68
2016-06-16T05:38:22.934Z,995.67
2016-06-16T05:39:22.921Z,995.69
2016-06-16T05:40:22.909Z,995.61
2016-06-16T05:41:22.880Z,995.61
2016-06-16T05:42:22.853Z,995.61
2016-06-16T05:43:22.841Z,995.6
2016-06-16T05:44:22.812Z,995.56
2016-06-16T05:45:22.800Z,995.56
2016-06-16T05:46:22.787Z,995.63
2016-06-16T05:47:22.758Z,995.61
2016-06-16T05:48:22.746Z,995.63
2016-06-16T05:49:22.734Z,995.66
2016-06-16T05:50:22.705Z,995.61
2016-06-16T05:51:22.693Z,995.67
2016-06-16T05:52:22.680Z,995.63
2016-06-16T05:53:22.652Z,995.62
2016-06-16T05:54:22.640Z,995.64
2016-06-16T05:55:22.628Z,995.65
2016-06-16T05:56:22.599Z,995.63
2016-06-16T05:57:22.587Z,995.54
2016-06-16T05:58:22.574Z,995.53
2016-06-16T05:59:22.545Z,995.56
2016-06-16T06:00:22.532Z,995.57
2016-06-16T06:01:22.521Z,995.6
2016-06-16T06:02:22.508Z,995.57
2016-06-16T06:03:22.495Z,995.64
2016-06-16T06:04:22.467Z,995.59
2016-06-16T06:05:22.454Z,995.61
2016-06-16T06:06:22.442Z,995.58
2016-06-16T06:07:22.430Z,995.58
2016-06-16T06:08:22.418Z,995.59
2016-06-16T06:09:22.405Z,995.63
2016-06-16T06:10:22.392Z,995.64
2016-06-16T06:11:22.364Z,995.64
2016-06-16T06:12:22.350Z,995.69
2016-06-16T06:13:22.338Z,995.71
2016-06-16T06:14:22.326Z,995.73
2016-06-16T06:15:22.314Z,995.77
2016-06-16T06:16:22.301Z,995.78
2016-06-16T06:17:22.288Z,995.8
2016-06-16T06:18:22.276Z,995.77
2016-06-16T06:19:22.264Z,995.77
2016-06-16T06:20:22.250Z,995.78
2016-06-16T06:21:22.239Z,995.78
2016-06-16T06:22:22.225Z,995.8
2016-06-16T06:23:22.214Z,995.76
2016-06-16T06:24:22.200Z,995.79
2016-06-16T06:25:22.188Z,995.74
2016-06-16T06:26:22.176Z,995.79
2016-06-16T06:27:22.163Z,995.81
2016-06-16T06:28:22.150Z,995.74
2016-06-16T06:29:22.138Z,995.79
2016-06-16T06:30:22.125Z,995.79
2016-06-16T06:31:22.113Z,995.76
2016-06-16T06:32:22.100Z,995.78
2016-06-16T06:33:22.103Z,995.8
2016-06-16T06:34:22.091Z,995.82
2016-06-16T06:35:22.079Z,995.8
2016-06-16T06:36:22.066Z,995.84
2016-06-16T06:37:22.052Z,995.87
2016-06-16T06:38:22.040Z,995.9
2016-06-16T06:39:22.028Z,995.85
2016-06-16T06:40:22.031Z,995.89
2016-06-16T06:41:22.019Z,995.91
2016-06-16T06:42:22.006Z,995.92
2016-06-16T06:43:21.993Z,995.97
2016-06-16T06:44:21.996Z,995.93
2016-06-16T06:45:21.984Z,995.96
2016-06-16T06:46:21.971Z,995.94
2016-06-16T06:47:21.958Z,995.96
2016-06-16T06:48:21.947Z,995.95
2016-06-16T06:49:21.950Z,995.97
2016-06-16T06:50:21.937Z,995.89
2016-06-16T06:51:21.924Z,995.92
2016-06-16T06:52:21.912Z,995.96
2016-06-16T06:53:21.914Z,995.95
2016-06-16T06:54:21.902Z,996
2016-06-16T06:55:21.890Z,995.98
2016-06-16T06:56:21.877Z,996.01
2016-06-16T06:57:22.005Z,996.05
2016-06-16T06:58:21.867Z,996.03
2016-06-16T06:59:21.855Z,996.05
2016-06-16T07:00:21.842Z,995.99
2016-06-16T07:01:21.845Z,995.96
2016-06-16T07:02:21.834Z,996.06
2016-06-16T07:03:21.837Z,996.05
2016-06-16T07:04:21.823Z,996.03
2016-06-16T07:05:21.810Z,996.01
2016-06-16T07:06:21.799Z,996.01
2016-06-16T07:07:21.802Z,996.05
2016-06-16T07:08:21.789Z,995.95
2016-06-16T07:09:21.776Z,995.92
2016-06-16T07:10:21.779Z,995.89
2016-06-16T07:11:21.767Z,995.86
2016-06-16T07:12:21.770Z,995.86
2016-06-16T07:13:21.773Z,995.85
2016-06-16T07:14:21.760Z,995.79
2016-06-16T07:15:21.749Z,995.79
2016-06-16T07:16:21.736Z,995.87
2016-06-16T07:17:21.723Z,995.85
2016-06-16T07:18:21.725Z,995.82
2016-06-16T07:19:21.714Z,995.78
2016-06-16T07:20:21.717Z,995.74
2016-06-16T07:21:21.704Z,995.75
2016-06-16T07:22:21.691Z,995.78
2016-06-16T07:23:21.694Z,995.76
2016-06-16T07:24:21.683Z,995.77
2016-06-16T07:25:21.685Z,995.72
2016-06-16T07:26:21.672Z,995.74
2016-06-16T07:27:21.675Z,995.72
2016-06-16T07:28:21.663Z,995.71
2016-06-16T07:29:21.667Z,995.68
2016-06-16T07:30:21.653Z,995.71
2016-06-16T07:31:21.656Z,995.67
2016-06-16T07:32:34.378Z,995.65
2016-06-16T07:33:21.632Z,995.72
2016-06-16T07:34:21.635Z,995.71
2016-06-16T07:48:36.802Z,995.72
2016-06-16T07:48:37.552Z,995.72
2016-06-16T07:48:47.552Z,995.76
2016-06-16T07:49:47.555Z,995.78
2016-06-16T07:50:47.542Z,995.81
2016-06-16T07:51:47.545Z,995.83
2016-06-16T07:52:47.517Z,995.87
2016-06-16T07:53:47.520Z,995.85
2016-06-16T07:54:47.509Z,995.81
2016-06-16T07:55:47.512Z,995.69
2016-06-16T07:56:47.515Z,995.7
2016-06-16T07:57:47.501Z,995.7
2016-06-16T07:58:47.488Z,995.72
2016-06-16T07:59:47.492Z,995.82
2016-06-16T08:00:47.480Z,995.82
2016-06-16T08:01:47.483Z,995.78
2016-06-16T08:02:47.470Z,995.77
2016-06-16T08:03:47.457Z,995.73
2016-06-16T08:04:47.460Z,995.77
2016-06-16T08:05:47.448Z,995.73
2016-06-16T08:06:47.452Z,995.82
2016-06-16T08:07:47.439Z,995.85
2016-06-16T08:08:47.442Z,995.73
2016-06-16T08:09:47.430Z,995.76
2016-06-16T08:10:47.417Z,995.85
2016-06-16T08:11:47.419Z,995.84
2016-06-16T08:12:47.407Z,995.81
2016-06-16T08:13:47.410Z,995.79
2016-06-16T08:14:47.397Z,995.77
2016-06-16T08:15:47.401Z,995.69
2016-06-16T08:16:47.388Z,995.69
2016-06-16T08:17:47.391Z,995.63
2016-06-16T08:18:47.395Z,995.64
2016-06-16T08:19:47.381Z,995.61
2016-06-16T08:20:47.369Z,995.62
2016-06-16T08:21:47.357Z,995.61
2016-06-16T08:22:47.344Z,995.67
2016-06-16T08:23:47.348Z,995.67
2016-06-16T08:24:47.334Z,995.65
2016-06-16T08:25:47.321Z,995.59
2016-06-16T08:26:47.324Z,995.56
2016-06-16T08:27:47.313Z,995.57
2016-06-16T08:28:47.300Z,995.57
2016-06-16T08:29:47.287Z,995.55
2016-06-16T08:30:47.275Z,995.61
2016-06-16T08:31:47.278Z,995.54
2016-06-16T08:32:47.265Z,995.58
2016-06-16T08:33:47.253Z,995.6
2016-06-16T08:34:47.241Z,995.57
2016-06-16T08:35:47.228Z,995.56
2016-06-16T08:36:47.216Z,995.58
2016-06-16T08:37:47.218Z,995.59
2016-06-16T08:38:47.206Z,995.56
2016-06-16T08:39:47.193Z,995.57
2016-06-16T08:40:47.181Z,995.61
2016-06-16T08:41:47.168Z,995.56
2016-06-16T08:42:47.157Z,995.66
2016-06-16T08:43:47.144Z,995.67
2016-06-16T08:44:47.131Z,995.73
2016-06-16T08:45:47.119Z,995.75
2016-06-16T08:46:47.122Z,995.83
2016-06-16T08:47:47.108Z,995.87
2016-06-16T08:48:23.300Z,996
2016-06-16T08:49:23.287Z,996.02
2016-06-16T08:50:23.275Z,996.05
2016-06-16T08:51:23.262Z,996.05
2016-06-16T08:52:23.249Z,996.09
2016-06-16T08:53:23.237Z,996.07
2016-06-16T08:54:23.240Z,996.11
2016-06-16T08:55:23.228Z,996.08
2016-06-16T08:56:23.214Z,996.04
2016-06-16T08:57:23.203Z,996.08
2016-06-16T08:58:23.205Z,996.06
2016-06-16T08:59:23.193Z,996.06
2016-06-16T09:00:23.180Z,996.02
2016-06-16T09:01:23.168Z,996
2016-06-16T09:02:23.155Z,996.02
2016-06-16T09:03:23.158Z,995.98
2016-06-16T09:04:23.145Z,995.98
2016-06-16T09:05:23.134Z,995.97
2016-06-16T09:06:23.120Z,995.97
2016-06-16T09:07:23.108Z,995.93
2016-06-16T09:08:23.095Z,995.91
2016-06-16T09:09:23.099Z,995.94
2016-06-16T09:10:23.086Z,995.89
2016-06-16T09:11:23.089Z,995.9
2016-06-16T09:12:23.060Z,995.86
2016-06-16T09:13:23.048Z,995.89
2016-06-16T09:14:23.051Z,995.84
2016-06-16T09:15:23.039Z,995.88
2016-06-16T09:16:23.026Z,995.84
2016-06-16T09:17:23.014Z,995.87
2016-06-16T09:18:23.001Z,995.88
2016-06-16T09:19:22.989Z,995.89
2016-06-16T09:20:22.976Z,995.91
2016-06-16T09:21:22.964Z,995.93
2016-06-16T09:22:22.950Z,995.95
2016-06-16T09:23:22.938Z,995.95
2016-06-16T09:24:22.926Z,995.97
2016-06-16T09:25:22.929Z,995.96
2016-06-16T09:26:22.917Z,995.93
2016-06-16T09:27:22.904Z,995.96
2016-06-16T09:28:22.891Z,995.9
2016-06-16T09:29:22.879Z,995.88
2016-06-16T09:30:22.866Z,995.91
2016-06-16T09:31:22.853Z,995.91
2016-06-16T09:32:22.841Z,995.91
2016-06-16T09:33:22.829Z,995.88
2016-06-16T09:34:22.816Z,995.87
2016-06-16T09:35:22.804Z,995.86
2016-06-16T09:36:22.791Z,995.88
2016-06-16T09:37:22.779Z,995.9
2016-06-16T09:38:22.781Z,995.88
2016-06-16T09:39:22.753Z,995.88
2016-06-16T09:40:22.741Z,995.87
2016-06-16T09:41:22.728Z,995.91
2016-06-16T09:42:22.716Z,995.9
2016-06-16T09:43:22.703Z,995.94
2016-06-16T09:44:22.690Z,995.92
2016-06-16T09:45:22.678Z,995.9
2016-06-16T09:46:22.666Z,995.91
2016-06-16T09:47:22.652Z,995.9
2016-06-16T09:48:22.640Z,995.87
2016-06-16T09:49:22.628Z,995.83
2016-06-16T09:50:22.615Z,995.89
2016-06-16T09:51:22.603Z,995.9
2016-06-16T09:52:22.590Z,995.88
2016-06-16T09:53:22.578Z,995.85
2016-06-16T09:54:22.564Z,995.83
2016-06-16T09:55:22.552Z,995.77
2016-06-16T09:56:22.540Z,995.81
2016-06-16T09:57:22.527Z,995.74
2016-06-16T09:58:22.515Z,995.75
2016-06-16T09:59:22.502Z,995.79
2016-06-16T10:00:22.474Z,995.8
2016-06-16T10:01:22.477Z,995.81
2016-06-16T10:02:22.449Z,995.81
2016-06-16T10:03:22.452Z,995.79
2016-06-16T10:04:22.424Z,995.79
2016-06-16T10:05:22.412Z,995.83
2016-06-16T10:06:22.602Z,995.84
2016-06-16T10:07:22.385Z,995.83
2016-06-16T10:08:22.374Z,995.89
2016-06-16T10:09:22.361Z,995.88
2016-06-16T10:10:22.348Z,995.89
2016-06-16T10:11:22.336Z,995.92
2016-06-16T10:12:22.323Z,995.91
2016-06-16T10:13:22.311Z,995.91
2016-06-16T10:14:22.299Z,995.9
2016-06-16T10:15:22.286Z,995.95
2016-06-16T10:16:22.257Z,995.94
2016-06-16T10:17:22.245Z,995.94
2016-06-16T10:18:22.232Z,995.97
2016-06-16T10:19:22.216Z,995.98
2016-06-16T10:20:22.220Z,995.95
2016-06-16T10:21:22.192Z,995.99
2016-06-16T10:22:22.179Z,995.99
2016-06-16T10:23:22.167Z,996.02
2016-06-16T10:24:22.154Z,996.02
2016-06-16T10:25:22.141Z,996.07
2016-06-16T10:26:22.129Z,996.03
2016-06-16T10:27:22.116Z,996.07
2016-06-16T10:28:22.105Z,996.06
2016-06-16T10:29:22.091Z,996.08
2016-06-16T10:30:22.079Z,996.04
2016-06-16T10:31:22.067Z,996.02
2016-06-16T10:32:22.070Z,996.07
2016-06-16T10:33:22.041Z,996.04
2016-06-16T10:34:22.029Z,996.04
2016-06-16T10:35:22.015Z,995.98
2016-06-16T10:36:22.004Z,996.02
2016-06-16T10:37:21.975Z,996
2016-06-16T10:38:21.978Z,996.01
2016-06-16T10:39:21.981Z,996.01
2016-06-16T10:40:21.937Z,996.03
2016-06-16T10:41:21.926Z,995.99
2016-06-16T10:42:21.912Z,995.98
2016-06-16T10:43:21.915Z,996.03
2016-06-16T10:44:21.887Z,996.02
2016-06-16T10:45:21.891Z,995.99
2016-06-16T10:46:21.863Z,995.95
2016-06-16T10:47:21.850Z,995.94
2016-06-16T10:48:21.837Z,995.91
2016-06-16T10:49:21.825Z,995.89
2016-06-16T10:50:21.812Z,995.88
2016-06-16T10:51:21.800Z,995.88
2016-06-16T10:52:21.787Z,995.89
2016-06-16T10:53:21.774Z,995.91
2016-06-16T10:54:21.762Z,995.92
2016-06-16T10:55:21.750Z,995.89
2016-06-16T10:56:21.736Z,995.9
2016-06-16T10:57:21.725Z,995.87
2016-06-16T10:58:21.712Z,995.89
2016-06-16T10:59:21.700Z,995.91
2016-06-16T11:00:21.686Z,995.88
2016-06-16T11:01:21.674Z,995.89
2016-06-16T11:02:21.662Z,995.94
2016-06-16T11:03:21.649Z,995.96
2016-06-16T11:04:21.637Z,995.94
2016-06-16T11:07:43.149Z,995.9
2016-06-16T11:09:46.108Z,995.92
2016-06-16T11:10:46.096Z,995.92
2016-06-16T11:11:46.083Z,995.91
2016-06-16T11:13:46.090Z,995.83
2016-06-16T11:14:46.046Z,995.84
2016-06-16T11:15:46.033Z,995.87
2016-06-16T11:16:46.020Z,995.85
2016-06-16T11:17:46.008Z,995.82
2016-06-16T11:18:45.995Z,995.78
2016-06-16T11:19:45.983Z,995.82
2016-06-16T11:20:45.971Z,995.77
2016-06-16T11:21:45.958Z,995.75
2016-06-16T11:22:45.946Z,995.73
2016-06-16T11:23:45.933Z,995.74
2016-06-16T11:24:45.920Z,995.73
2016-06-16T11:25:45.908Z,995.74
2016-06-16T11:26:45.894Z,995.69
2016-06-16T11:27:45.883Z,995.7
2016-06-16T11:28:45.870Z,995.7
2016-06-16T11:29:45.857Z,995.67
2016-06-16T11:30:45.845Z,995.7
2016-06-16T11:31:45.832Z,995.72
2016-06-16T11:32:45.819Z,995.68
2016-06-16T11:33:45.808Z,995.61
2016-06-16T11:34:45.794Z,995.61
2016-06-16T11:35:45.783Z,995.61
2016-06-16T11:36:45.770Z,995.61
2016-06-16T11:37:45.756Z,995.59
2016-06-16T11:38:45.744Z,995.58
2016-06-16T11:39:45.732Z,995.55
2016-06-16T11:40:45.719Z,995.56
2016-06-16T11:41:45.707Z,995.57
2016-06-16T11:42:45.694Z,995.55
2016-06-16T11:43:45.681Z,995.58
2016-06-16T11:44:45.669Z,995.55
2016-06-16T11:45:45.656Z,995.54
2016-06-16T11:46:45.645Z,995.52
2016-06-16T11:47:45.631Z,995.53
2016-06-16T11:48:45.603Z,995.56
2016-06-16T11:49:45.606Z,995.56
2016-06-16T11:50:45.577Z,995.54
2016-06-16T11:51:45.581Z,995.5
2016-06-16T11:52:45.569Z,995.48
2016-06-16T11:53:45.556Z,995.49
2016-06-16T11:54:45.544Z,995.48
2016-06-16T11:55:45.515Z,995.45
2016-06-16T11:56:45.503Z,995.45
2016-06-16T11:57:45.490Z,995.45
2016-06-16T11:58:45.478Z,995.4
2016-06-16T11:59:45.466Z,995.42
2016-06-16T12:00:45.452Z,995.39
2016-06-16T12:01:45.441Z,995.43
2016-06-16T12:02:45.428Z,995.44
2016-06-16T12:03:45.414Z,995.44
2016-06-16T12:04:45.403Z,995.46
2016-06-16T12:05:45.390Z,995.47
2016-06-16T12:06:45.393Z,995.45
2016-06-16T12:07:45.365Z,995.46
2016-06-16T12:08:45.352Z,995.45
2016-06-16T12:09:45.340Z,995.48
2016-06-16T12:10:45.327Z,995.46
2016-06-16T12:11:45.314Z,995.43
2016-06-16T12:12:45.302Z,995.42
2016-06-16T12:13:45.289Z,995.45
2016-06-16T12:14:45.277Z,995.47
2016-06-16T12:15:45.265Z,995.44
2016-06-16T12:16:45.251Z,995.44
2016-06-16T12:17:45.240Z,995.45
2016-06-16T12:18:45.227Z,995.4
2016-06-16T12:19:45.214Z,995.45
2016-06-16T12:20:45.202Z,995.41
2016-06-16T12:21:45.189Z,995.42
2016-06-16T12:22:45.176Z,995.43
2016-06-16T12:23:45.164Z,995.46
2016-06-16T12:24:45.152Z,995.41
2016-06-16T12:25:45.139Z,995.36
2016-06-16T12:26:45.126Z,995.42
2016-06-16T12:27:45.113Z,995.4
2016-06-16T12:28:45.102Z,995.4
2016-06-16T12:29:45.089Z,995.38
2016-06-16T12:30:45.076Z,995.38
2016-06-16T12:31:45.064Z,995.32
2016-06-16T12:32:45.051Z,995.32
2016-06-16T12:33:45.039Z,995.33
2016-06-16T12:34:45.026Z,995.3
2016-06-16T12:35:45.013Z,995.33
2016-06-16T12:36:45.001Z,995.27
2016-06-16T12:37:44.989Z,995.29
2016-06-16T12:38:44.976Z,995.26
2016-06-16T12:39:44.963Z,995.26
2016-06-16T12:40:44.951Z,995.26
2016-06-16T12:41:44.938Z,995.22
2016-06-16T12:42:44.925Z,995.23
2016-06-16T12:43:44.913Z,995.23
2016-06-16T12:44:44.900Z,995.23
2016-06-16T12:45:44.888Z,995.26